Time;durP1;ratioP1;P1;durP2;ratioP2;P2;SDS_P1;SDS_P2;PMS_P1;PMS_P2;Temp;Humidity;BMP_temperature;BMP_pressure;BME280_temperature;BME280_humidity;BME280_pressure;Samples;Min_cycle;Max_cycle;Signal;HPM_P1;HPM_P2
2022/04/05 05:05:42;;;;;;;5.30;3.70;;;7.60;73.30;;;8.15;50.00;98070.44;5979698;23;98473;-93
2022/04/05 05:08:09;;;;;;;3.80;3.50;;;7.70;73.50;;;8.16;50.25;98078.38;4935851;28;126393;-83
2022/04/05 05:14:20;;;;;;;6.53;3.60;;;7.30;73.30;;;8.18;50.36;98081.63;4942836;28;115277;-86
2022/04/05 05:17:49;;;;;;;5.73;3.97;;;5.90;73.00;;;8.18;50.41;98087.13;4942799;28;114492;-83
2022/04/05 05:31:36;;;;;;;4.13;3.20;;;7.70;74.60;;;8.26;50.59;98090.25;4921771;28;96239;-83
2022/04/05 05:37:47;;;;;;;3.20;2.90;;;7.70;74.70;;;8.28;50.75;98108.09;4912842;28;115267;-91
2022/04/05 05:44:53;;;;;;;3.60;3.30;;;7.70;74.90;;;8.29;50.72;98093.19;4920788;28;124486;-84
2022/04/05 05:47:22;;;;;;;3.33;2.87;;;7.70;74.90;;;8.27;50.65;98105.63;4909399;28;123459;-90
2022/04/05 05:53:30;;;;;;;5.60;3.87;;;7.70;75.20;;;8.27;50.98;98109.19;4921520;28;115876;-90
2022/04/05 05:59:39;;;;;;;3.87;3.17;;;8.00;75.60;;;8.29;51.04;98112.44;4921353;28;124782;-91
2022/04/05 06:05:47;;;;;;;3.50;3.20;;;7.40;75.30;;;8.28;51.54;98108.09;4913906;28;114443;-90
2022/04/05 06:08:34;;;;;;;5.33;3.87;;;7.70;76.70;;;8.29;51.38;98108.88;4899368;28;123811;-90
2022/04/05 06:11:10;;;;;;;4.40;4.00;;;5.50;74.30;;;8.26;51.50;98121.34;4881088;28;124573;-90
2022/04/05 06:13:38;;;;;;;4.80;4.07;;;9.40;77.90;;;8.24;51.63;98118.06;4898184;28;114034;-90
2022/04/05 06:19:47;;;;;;;6.10;4.40;;;7.60;76.50;;;8.17;51.78;98118.53;4905196;28;124417;-90
2022/04/05 06:25:56;;;;;;;6.83;4.47;;;6.40;75.90;;;8.09;52.29;98133.03;4920524;28;115271;-90
2022/04/05 06:29:19;;;;;;;5.20;4.17;;;7.50;77.80;;;8.07;52.35;98128.97;4917285;28;114506;-88
2022/04/05 06:35:27;;;;;;;6.07;4.53;;;7.50;77.70;;;7.94;53.27;98131.47;4917662;28;123892;-89
2022/04/05 06:37:56;;;;;;;7.47;4.97;;;9.80;80.90;;;7.90;53.22;98129.66;4919086;28;112684;-86
2022/04/05 06:44:06;;;;;;;8.33;4.70;;;9.40;80.20;;;7.87;53.50;98131.09;4919827;28;125006;-88
2022/04/05 06:50:20;;;;;;;6.23;4.27;;;6.30;77.90;;;7.81;53.24;98123.25;4919923;28;115685;-90
2022/04/05 06:53:12;;;;;;;4.83;4.23;;;5.90;77.90;;;7.83;53.61;98146.59;4917576;28;114580;-85
2022/04/05 06:59:22;;;;;;;7.30;4.83;;;8.50;80.40;;;7.77;54.20;98120.34;4842436;29;124229;-87
2022/04/05 07:02:10;;;;;;;4.83;4.33;;;5.70;78.90;;;7.81;54.19;98126.81;4843805;29;114272;-89
2022/04/05 07:05:33;;;;;;;8.00;4.57;;;7.40;79.80;;;7.84;54.38;98115.19;4823540;29;114460;-89
2022/04/05 07:07:59;;;;;;;6.10;4.50;;;7.20;79.80;;;7.81;54.32;98109.50;4821919;29;124106;-89
2022/04/05 07:10:27;;;;;;;5.10;4.10;;;7.40;80.90;;;7.85;54.32;98119.59;4820319;29;123305;-87
2022/04/05 07:13:31;;;;;;;6.30;4.30;;;7.40;80.60;;;7.87;54.02;98113.75;4805561;29;112745;-84
2022/04/05 07:19:41;;;;;;;4.93;4.40;;;7.40;80.20;;;7.84;54.56;98109.69;4837625;28;124144;-88
2022/04/05 07:22:28;;;;;;;6.80;4.17;;;7.60;81.30;;;7.91;54.48;98118.34;4820927;29;123753;-87
2022/04/05 07:25:36;;;;;;;7.37;4.80;;;5.60;78.80;;;7.91;54.12;98115.59;4832558;29;114186;-89
2022/04/05 07:32:04;;;;;;;8.43;4.80;;;7.50;80.80;;;7.95;54.76;98122.09;4829978;28;124953;-89
2022/04/05 07:34:33;;;;;;;5.97;4.50;;;8.90;82.90;;;7.95;54.62;98111.09;4927996;28;123200;-88
2022/04/05 07:40:52;;;;;;;6.50;4.50;;;7.50;80.90;;;8.03;54.87;98109.50;4931627;28;114568;-89
2022/04/05 07:44:16;;;;;;;5.63;4.87;;;7.50;81.50;;;8.07;54.41;98115.22;4930939;28;123638;-89
2022/04/05 07:47:02;;;;;;;4.47;3.87;;;5.70;79.50;;;8.10;54.36;98120.91;4932813;28;123752;-90
2022/04/05 07:50:07;;;;;;;5.80;4.13;;;5.40;79.20;;;8.13;54.46;98117.53;4938969;28;113180;-89
2022/04/05 07:52:55;;;;;;;4.50;3.70;;;7.70;81.00;;;8.18;54.36;98114.66;4917451;28;113152;-90
2022/04/05 07:56:01;;;;;;;5.53;4.30;;;8.80;81.80;;;8.24;54.02;98112.56;4919170;28;123065;-89
2022/04/05 08:02:09;;;;;;;6.23;4.33;;;6.40;79.90;;;8.30;54.41;98124.25;4936407;28;114621;-88
2022/04/05 08:04:38;;;;;;;6.33;4.30;;;7.80;81.40;;;8.34;54.45;98106.00;4933630;28;114412;-88
2022/04/05 08:07:06;;;;;;;6.57;4.77;;;7.80;82.20;;;8.38;54.33;98126.25;4899303;28;123333;-89
2022/04/05 08:09:34;;;;;;;5.70;4.40;;;7.80;82.20;;;8.45;54.38;98110.16;4933537;28;123416;-90
2022/04/05 08:12:22;;;;;;;5.37;4.40;;;7.90;82.20;;;8.50;54.05;98117.47;4951207;28;113537;-89
2022/04/05 08:15:09;;;;;;;5.33;4.47;;;8.00;81.20;;;8.55;53.98;98106.31;4955135;28;113817;-89
2022/04/05 08:17:37;;;;;;;6.03;4.43;;;8.10;81.40;;;8.61;54.17;98107.81;4933702;28;124437;-90
2022/04/05 08:20:08;;;;;;;5.10;4.50;;;8.10;82.00;;;8.65;53.88;98111.56;4921231;28;124178;-89
2022/04/05 08:22:36;;;;;;;6.60;4.20;;;8.10;81.60;;;8.68;54.21;98121.94;4924888;28;113493;-89
2022/04/05 08:25:06;;;;;;;4.43;3.87;;;8.40;82.30;;;8.69;54.11;98118.03;4908662;28;113102;-88
2022/04/05 08:27:34;;;;;;;5.43;4.30;;;8.10;81.80;;;8.72;54.41;98122.91;4911403;28;123307;-89
2022/04/05 08:30:20;;;;;;;6.50;4.47;;;8.10;82.90;;;8.76;54.30;98120.34;4920920;28;122883;-89
2022/04/05 08:32:48;;;;;;;5.60;4.30;;;6.30;80.50;;;8.77;54.21;98128.28;4906675;28;113704;-90
2022/04/05 08:35:34;;;;;;;7.13;4.60;;;7.90;81.90;;;8.80;54.28;98130.41;4907974;28;113483;-89
2022/04/05 08:38:01;;;;;;;5.83;3.87;;;7.10;81.50;;;8.84;54.54;98123.16;4896115;28;123023;-90
2022/04/05 08:40:27;;;;;;;4.63;3.83;;;8.40;82.30;;;8.90;54.60;98134.03;4911553;28;123204;-89
2022/04/05 08:42:57;;;;;;;3.93;3.20;;;7.70;82.50;;;8.92;54.45;98134.50;4896131;28;115257;-89
2022/04/05 08:45:28;;;;;;;4.33;3.10;;;8.30;82.50;;;8.99;54.87;98126.59;4895933;28;114721;-89
2022/04/05 08:48:13;;;;;;;4.43;3.57;;;8.80;83.20;;;9.04;54.54;98123.69;4878097;28;123419;-89
2022/04/05 08:51:01;;;;;;;4.63;3.13;;;7.10;81.60;;;9.11;54.38;98135.06;4910444;28;123223;-89
2022/04/05 08:53:29;;;;;;;7.70;3.70;;;8.60;82.40;;;9.15;54.29;98129.72;4909512;28;114676;-89
2022/04/05 08:55:55;;;;;;;7.47;3.20;;;8.60;83.10;;;9.22;54.56;98144.66;4910274;28;114052;-90
2022/04/05 08:59:21;;;;;;;5.30;3.97;;;8.60;83.10;;;9.27;54.45;98127.19;4879307;28;122247;-88
2022/04/05 09:02:27;;;;;;;5.13;4.00;;;10.20;82.80;;;9.32;54.57;98131.72;4911415;28;95805;-88
2022/04/05 09:04:54;;;;;;;5.57;4.40;;;8.80;82.80;;;9.34;54.58;98115.66;4897382;28;114126;-91
2022/04/05 09:07:42;;;;;;;5.13;3.50;;;8.80;83.40;;;9.41;54.54;98119.59;4911922;28;114218;-90
2022/04/05 09:10:48;;;;;;;4.27;3.87;;;9.00;83.70;;;9.47;54.57;98120.25;4914093;28;123571;-89
2022/04/05 09:13:22;;;;;;;4.90;3.50;;;9.00;83.20;;;9.52;55.13;98125.59;4893378;28;123139;-89
2022/04/05 09:15:52;;;;;;;5.87;3.43;;;9.00;83.40;;;9.61;54.94;98128.38;4903170;28;113969;-89
2022/04/05 09:18:34;;;;;;;4.97;3.73;;;9.00;83.50;;;9.65;54.89;98121.88;4888817;28;115962;-89
2022/04/05 09:21:04;;;;;;;3.87;3.47;;;9.10;83.70;;;9.70;55.00;98130.00;4859351;28;122028;-88
2022/04/05 09:23:53;;;;;;;5.23;3.60;;;9.10;83.50;;;9.73;55.10;98125.78;4904308;28;124352;-88
2022/04/05 09:26:58;;;;;;;4.47;3.20;;;9.10;83.60;;;9.74;54.87;98128.22;4902228;28;112572;-89
2022/04/05 09:30:02;;;;;;;5.80;3.17;;;9.20;83.60;;;9.79;54.96;98130.00;4906868;28;113234;-88
2022/04/05 09:33:11;;;;;;;4.80;3.60;;;9.10;83.40;;;9.84;55.35;98137.31;4914289;28;124767;-88
2022/04/05 09:36:34;;;;;;;4.70;3.70;;;7.80;82.40;;;9.85;55.14;98136.19;4903454;28;123209;-88
2022/04/05 09:39:26;;;;;;;4.93;3.10;;;9.40;83.70;;;9.87;54.93;98131.16;4904986;28;113442;-89
2022/04/05 09:42:05;;;;;;;6.57;4.00;;;9.40;83.60;;;9.91;54.88;98129.34;4919255;28;114833;-89
2022/04/05 09:44:40;;;;;;;4.17;3.40;;;9.40;83.70;;;9.95;55.23;98136.66;4910460;28;122263;-88
2022/04/05 09:47:46;;;;;;;3.93;3.40;;;9.40;84.10;;;10.02;55.21;98138.94;4906539;28;124217;-89
2022/04/05 09:50:14;;;;;;;5.10;4.20;;;9.50;83.80;;;10.04;55.01;98144.94;4899822;28;112914;-89
2022/04/05 09:52:41;;;;;;;6.50;4.03;;;11.20;84.60;;;10.04;55.07;98139.41;4918492;28;113071;-90
2022/04/05 09:55:47;;;;;;;5.43;3.70;;;9.60;84.30;;;10.05;55.32;98140.25;4904510;28;122424;-90
2022/04/05 09:58:36;;;;;;;4.90;3.50;;;9.50;83.90;;;10.07;55.17;98130.47;4899796;28;123263;-89
2022/04/05 10:02:01;;;;;;;4.07;2.80;;;9.60;84.10;;;10.10;55.53;98143.66;4897225;28;113293;-89
2022/04/05 10:05:09;;;;;;;3.80;3.03;;;9.70;84.30;;;10.09;55.54;98147.53;4921090;28;114483;-89
2022/04/05 10:08:13;;;;;;;4.90;3.53;;;9.60;84.20;;;10.11;55.59;98156.31;4920474;28;123805;-89
2022/04/05 10:10:40;;;;;;;6.03;3.40;;;9.70;84.30;;;10.07;55.48;98144.28;4900478;28;122737;-89
2022/04/05 10:13:27;;;;;;;4.63;3.47;;;9.90;85.00;;;10.10;55.67;98154.69;4902737;28;114219;-88
2022/04/05 10:15:57;;;;;;;4.30;3.47;;;9.70;84.60;;;10.12;55.56;98162.63;4901433;28;113950;-89
2022/04/05 10:18:43;;;;;;;4.23;3.77;;;9.10;84.20;;;10.14;55.73;98152.91;4892080;28;123506;-89
2022/04/05 10:21:11;;;;;;;4.27;3.33;;;9.70;84.50;;;10.14;55.59;98154.84;4905146;28;122978;-89
2022/04/05 10:23:58;;;;;;;5.60;3.60;;;9.70;84.90;;;10.16;55.60;98153.38;4923789;28;114311;-89
2022/04/05 10:26:29;;;;;;;3.90;2.90;;;9.70;84.80;;;10.18;55.55;98150.28;4916856;28;113716;-91
2022/04/05 10:29:01;;;;;;;3.60;2.83;;;11.80;86.10;;;10.20;55.51;98148.00;4911320;28;124047;-90
2022/04/05 10:31:40;;;;;;;3.60;2.90;;;9.70;85.00;;;10.26;55.87;98143.13;4894870;28;122689;-89
2022/04/05 10:37:48;;;;;;;5.90;3.17;;;9.70;84.90;;;10.30;55.97;98146.91;4910398;28;114873;-90
2022/04/05 10:40:33;;;;;;;3.20;2.77;;;9.90;85.20;;;10.33;55.73;98132.44;4901446;28;124347;-89
2022/04/05 10:43:38;;;;;;;4.30;3.20;;;12.00;86.20;;;10.35;55.99;98143.97;4904606;28;123932;-89
2022/04/05 10:46:55;;;;;;;4.90;2.93;;;9.90;85.30;;;10.37;55.92;98137.00;4896620;28;112070;-90
2022/04/05 10:49:43;;;;;;;3.13;2.47;;;9.90;85.30;;;10.42;56.06;98137.94;4908145;28;113683;-90
2022/04/05 10:52:15;;;;;;;4.17;2.80;;;9.90;85.30;;;10.44;55.81;98138.44;4932647;28;123415;-88
2022/04/05 10:55:17;;;;;;;4.30;2.90;;;9.90;85.30;;;10.47;55.89;98141.34;4878035;28;121656;-90
2022/04/05 10:57:44;;;;;;;4.27;3.10;;;10.00;84.40;;;10.50;55.94;98135.16;4911454;28;114530;-88
2022/04/05 11:00:23;;;;;;;3.60;2.83;;;10.00;84.50;;;10.52;55.88;98138.41;4917558;28;113765;-89
2022/04/05 11:02:58;;;;;;;3.83;2.83;;;10.00;84.60;;;10.56;55.66;98138.59;4892211;28;123185;-89
2022/04/05 11:05:46;;;;;;;3.87;3.03;;;10.00;84.60;;;10.60;55.99;98134.81;4913999;28;123080;-89
2022/04/05 11:08:32;;;;;;;3.10;2.67;;;10.10;84.80;;;10.64;55.98;98139.69;4902415;28;113618;-89
2022/04/05 11:11:05;;;;;;;3.20;2.47;;;10.10;84.80;;;10.67;55.93;98130.75;4894924;28;112335;-89
2022/04/05 11:13:39;;;;;;;3.00;2.70;;;10.30;85.20;;;10.71;56.03;98137.22;4920936;28;123397;-89
2022/04/05 11:16:12;;;;;;;2.90;2.50;;;10.10;85.00;;;10.73;55.97;98129.44;4924968;28;124466;-89
2022/04/05 11:18:41;;;;;;;4.00;2.80;;;10.10;85.20;;;10.72;56.02;98147.13;4893209;28;113032;-90
2022/04/05 11:25:05;;;;;;;4.63;3.10;;;10.20;85.40;;;10.68;56.74;98135.13;4917568;28;124619;-89
2022/04/05 11:28:10;;;;;;;3.13;2.80;;;10.20;85.60;;;10.67;56.69;98133.53;4918208;28;123615;-89
2022/04/05 11:30:44;;;;;;;4.40;2.80;;;10.20;85.90;;;10.68;57.01;98129.59;4927333;28;114735;-89
2022/04/05 11:33:18;;;;;;;3.50;2.80;;;10.20;86.00;;;10.71;57.18;98128.94;4917835;28;114296;-90
2022/04/05 11:36:25;;;;;;;3.90;2.70;;;10.30;86.10;;;10.76;56.76;98123.25;4896248;28;123386;-89
2022/04/05 11:39:30;;;;;;;3.23;2.67;;;10.30;86.20;;;10.79;56.98;98117.84;4930406;28;123281;-89
2022/04/05 11:42:02;;;;;;;3.00;2.70;;;10.30;86.40;;;10.83;56.86;98131.84;4918586;28;113884;-90
2022/04/05 11:48:19;;;;;;;3.77;2.93;;;10.40;86.80;;;10.85;57.42;98124.00;4908999;28;125237;-90
2022/04/05 11:50:49;;;;;;;2.40;2.20;;;10.40;86.80;;;10.90;57.49;98118.31;4911073;28;123514;-90
2022/04/05 11:53:36;;;;;;;12.47;2.90;;;10.40;86.80;;;10.95;57.60;98129.19;4911164;28;114087;-89
2022/04/05 11:56:41;;;;;;;3.43;2.83;;;10.50;87.20;;;11.00;57.13;98129.00;4919350;28;113698;-90
2022/04/05 11:59:12;;;;;;;3.53;2.90;;;10.50;87.40;;;11.04;57.05;98126.38;4889009;28;123732;-88
2022/04/05 12:01:42;;;;;;;3.23;2.80;;;10.60;87.10;;;11.08;57.14;98109.94;4906510;28;123626;-88
2022/04/05 12:04:46;;;;;;;2.40;2.20;;;10.60;86.80;;;11.15;56.84;98104.69;4928690;28;114362;-87
2022/04/05 12:07:34;;;;;;;3.63;2.63;;;10.70;86.80;;;11.25;56.66;98120.91;4910551;28;113687;-88
2022/04/05 12:10:03;;;;;;;3.30;2.97;;;10.70;86.90;;;11.32;57.03;98115.69;4928273;28;124100;-87
2022/04/05 12:12:49;;;;;;;2.33;2.13;;;10.80;86.80;;;11.41;56.51;98102.59;4920650;28;123372;-87
2022/04/05 12:15:20;;;;;;;4.47;2.30;;;10.90;86.70;;;11.49;56.31;98110.03;4925783;28;114084;-88
2022/04/05 12:18:23;;;;;;;2.77;2.40;;;11.10;86.70;;;11.57;56.09;98115.84;4943329;28;113980;-88
2022/04/05 12:21:09;;;;;;;2.90;2.60;;;11.10;86.50;;;11.63;56.22;98120.03;4911367;28;122407;-88
2022/04/05 12:23:43;;;;;;;3.23;2.60;;;11.10;86.20;;;11.66;56.22;98114.66;4922968;28;123507;-88
2022/04/05 12:26:34;;;;;;;6.63;2.70;;;11.20;86.10;;;11.70;55.78;98114.78;4903005;28;115451;-87
2022/04/05 12:29:01;;;;;;;3.90;2.80;;;11.20;85.90;;;11.73;55.89;98103.03;4903237;28;114824;-89
2022/04/05 12:31:30;;;;;;;3.93;2.50;;;11.30;85.80;;;11.76;55.90;98107.88;4903643;28;122870;-88
2022/04/05 12:34:11;;;;;;;3.60;2.97;;;11.30;85.70;;;11.79;55.60;98104.44;4882095;28;121842;-89
2022/04/05 12:36:54;;;;;;;3.13;2.53;;;11.30;85.60;;;11.81;55.93;98104.91;4892511;28;114807;-89
2022/04/05 12:39:48;;;;;;;3.97;2.70;;;11.40;85.60;;;11.85;55.78;98094.81;4898064;28;112243;-88
2022/04/05 12:42:41;;;;;;;3.90;2.77;;;11.40;85.50;;;11.87;55.70;98095.28;4903268;28;123587;-89
2022/04/05 12:45:11;;;;;;;3.70;3.10;;;11.50;85.40;;;11.88;55.73;98115.50;4921369;28;122907;-88
2022/04/05 12:48:16;;;;;;;3.07;2.60;;;11.50;85.40;;;11.87;55.63;98103.59;4924526;28;114118;-89
2022/04/05 12:50:50;;;;;;;2.57;2.20;;;11.50;85.30;;;11.90;55.44;98108.47;4913319;28;113004;-89
2022/04/05 12:54:14;;;;;;;4.13;2.33;;;11.50;85.10;;;11.91;55.43;98082.41;4931721;28;123922;-88
2022/04/05 12:56:41;;;;;;;2.50;2.30;;;11.50;85.20;;;11.97;55.69;98101.56;4898265;28;123972;-88
2022/04/05 12:59:28;;;;;;;2.57;2.00;;;11.50;85.20;;;12.02;55.46;98093.88;4900865;28;114235;-88
2022/04/05 13:02:37;;;;;;;4.00;2.40;;;11.60;85.20;;;12.06;55.43;98102.28;4907821;28;112917;-89
2022/04/05 13:08:15;;;;;;;2.80;2.30;;;11.70;85.00;;;12.08;55.04;98108.31;4907790;28;123822;-89
2022/04/05 13:11:00;;;;;;;2.93;2.10;;;11.60;84.50;;;12.09;54.69;98101.63;4919943;28;114124;-90
2022/04/05 13:14:12;;;;;;;2.60;2.03;;;11.70;84.60;;;12.11;55.06;98100.13;4902880;28;112029;-88
2022/04/05 13:17:02;;;;;;;2.43;2.20;;;11.70;84.50;;;12.13;54.86;98111.69;4911474;28;123456;-89
2022/04/05 13:19:29;;;;;;;2.83;2.10;;;11.80;84.60;;;12.15;54.64;98103.03;4892479;28;124293;-88
2022/04/05 13:25:56;;;;;;;2.00;1.83;;;11.80;84.40;;;12.15;54.68;98089.19;4918407;28;114787;-88
2022/04/05 13:28:45;;;;;;;3.00;2.57;;;11.80;84.50;;;12.16;54.81;98088.03;4914128;28;124215;-89
2022/04/05 13:31:21;;;;;;;3.47;2.00;;;11.80;84.60;;;12.20;54.93;98082.63;4891984;28;124329;-89
2022/04/05 13:34:48;;;;;;;2.17;1.97;;;11.80;84.60;;;12.20;54.82;98083.44;4923475;28;113567;-88
2022/04/05 13:37:34;;;;;;;3.17;1.97;;;11.80;84.60;;;12.18;55.00;98087.72;4903769;28;113823;-89
2022/04/05 13:40:20;;;;;;;3.80;2.20;;;11.80;84.70;;;12.19;55.03;98086.56;4887763;28;122346;-88
2022/04/05 13:43:06;;;;;;;2.13;1.93;;;11.80;84.80;;;12.22;54.96;98088.63;4906474;28;122942;-89
2022/04/05 13:46:13;;;;;;;2.97;2.10;;;11.80;84.70;;;12.22;55.09;98083.91;4900057;28;113083;-89
2022/04/05 13:48:39;;;;;;;1.70;1.60;;;11.80;84.80;;;12.24;55.30;98081.59;4905827;28;113322;-89
2022/04/05 13:51:07;;;;;;;4.50;2.00;;;11.90;84.90;;;12.24;55.30;98073.28;4922166;28;124319;-88
2022/04/05 13:53:34;;;;;;;2.30;1.97;;;11.90;84.90;;;12.28;55.34;98079.78;4937737;28;123352;-92
2022/04/05 13:56:01;;;;;;;2.37;2.17;;;11.90;84.90;;;12.34;55.23;98078.41;4923758;28;113943;-88
2022/04/05 13:58:31;;;;;;;2.00;1.70;;;11.90;85.00;;;12.36;54.96;98075.31;4902549;28;114128;-90
2022/04/05 14:00:59;;;;;;;2.63;1.80;;;12.00;85.10;;;12.36;54.90;98073.34;4902589;28;124828;-86
2022/04/05 14:03:31;;;;;;;2.57;2.00;;;12.10;85.10;;;12.37;55.16;98072.19;4914776;28;123357;-92
2022/04/05 14:06:54;;;;;;;2.33;2.13;;;11.90;84.90;;;12.35;55.06;98065.38;4915912;28;114765;-89
2022/04/05 14:09:22;;;;;;;2.00;1.80;;;12.00;85.00;;;12.37;55.01;98060.28;4907406;28;113495;-91
2022/04/05 14:15:30;;;;;;;1.90;1.80;;;11.90;84.90;;;12.39;55.02;98069.09;4920705;28;124779;-88
2022/04/05 14:17:56;;;;;;;2.30;1.93;;;12.00;85.00;;;12.41;55.12;98057.63;4919350;28;114453;-88
2022/04/05 14:20:24;;;;;;;2.20;2.00;;;12.00;85.00;;;12.44;54.98;98070.81;4921866;28;114536;-88
2022/04/05 14:22:50;;;;;;;2.37;2.00;;;12.00;84.80;;;12.48;54.89;98060.66;4918526;28;123947;-86
2022/04/05 14:25:19;;;;;;;1.90;1.77;;;12.00;84.80;;;12.53;54.85;98054.91;4912258;28;123081;-88
2022/04/05 14:27:46;;;;;;;2.00;1.80;;;12.00;84.80;;;12.56;54.79;98045.91;4906025;28;113606;-88
2022/04/05 14:30:15;;;;;;;1.90;1.50;;;12.10;84.70;;;12.61;54.75;98045.69;4926402;28;113933;-89
2022/04/05 14:32:41;;;;;;;2.10;1.60;;;12.10;84.70;;;12.64;54.59;98046.97;4905686;28;123434;-88
2022/04/05 14:35:26;;;;;;;1.97;1.77;;;12.20;84.60;;;12.66;54.22;98031.59;4906433;28;123155;-88
2022/04/05 14:37:54;;;;;;;2.10;1.90;;;12.20;84.50;;;12.69;54.33;98047.53;4910467;28;114378;-89
2022/04/05 14:40:21;;;;;;;2.53;1.90;;;12.20;84.30;;;12.71;54.28;98044.44;4917240;28;113261;-88
2022/04/05 14:43:27;;;;;;;1.93;1.43;;;12.30;84.20;;;12.70;54.14;98046.38;4901092;28;123893;-87
2022/04/05 14:45:53;;;;;;;2.20;2.00;;;12.20;84.00;;;12.70;54.01;98046.38;4907308;28;121923;-89
2022/04/05 14:48:22;;;;;;;2.00;1.80;;;12.20;83.90;;;12.68;54.21;98045.09;4902364;28;114344;-89
2022/04/05 14:50:54;;;;;;;2.10;1.90;;;12.20;83.80;;;12.68;54.03;98048.69;4909614;28;113490;-88
2022/04/05 14:57:03;;;;;;;2.73;2.10;;;12.20;83.70;;;12.65;53.95;98043.03;4920167;28;123830;-88
2022/04/05 14:59:31;;;;;;;2.13;1.80;;;12.30;83.90;;;12.66;54.35;98045.47;4893050;28;114427;-88
2022/04/05 15:05:39;;;;;;;2.33;1.87;;;12.30;83.80;;;12.66;54.23;98041.88;4920504;28;124146;-89
2022/04/05 15:08:07;;;;;;;2.30;2.10;;;12.30;83.80;;;12.68;54.11;98039.56;4905175;28;122783;-89
2022/04/05 15:10:54;;;;;;;2.60;2.40;;;12.30;83.80;;;12.69;54.12;98038.41;4896563;28;115264;-89
2022/04/05 15:13:21;;;;;;;2.80;2.10;;;12.30;83.80;;;12.70;53.88;98048.34;4921961;28;115079;-88
2022/04/05 15:16:10;;;;;;;2.53;1.70;;;12.30;83.80;;;12.69;53.94;98039.22;4920347;28;123650;-89
2022/04/05 15:19:14;;;;;;;2.50;2.10;;;12.30;83.70;;;12.70;53.92;98043.59;4925195;28;122178;-90
2022/04/05 15:21:41;;;;;;;2.90;2.10;;;12.30;83.70;;;12.71;53.90;98044.44;4909316;28;112482;-88
2022/04/05 15:24:45;;;;;;;2.40;2.20;;;12.30;83.70;;;12.68;54.11;98037.63;4913580;28;114078;-88
2022/04/05 15:27:12;;;;;;;2.57;2.13;;;12.30;83.70;;;12.68;54.13;98043.16;4881146;28;121951;-88
2022/04/05 15:29:58;;;;;;;2.80;2.20;;;12.30;83.60;;;12.68;54.04;98047.88;4883958;28;122765;-89
2022/04/05 15:32:26;;;;;;;2.50;2.30;;;12.30;83.60;;;12.66;54.12;98034.38;4922774;28;114993;-88
2022/04/05 15:35:13;;;;;;;3.00;2.40;;;12.20;83.60;;;12.64;53.77;98033.09;4926044;28;113758;-89
2022/04/05 15:37:40;;;;;;;2.83;2.37;;;12.20;83.70;;;12.66;54.00;98036.34;4923787;28;123636;-90
2022/04/05 15:41:04;;;;;;;2.70;2.37;;;12.20;83.80;;;12.63;54.27;98051.69;4902170;28;124075;-88
2022/04/05 15:43:51;;;;;;;2.50;2.03;;;12.20;83.80;;;12.62;53.90;98041.75;4918232;28;113580;-88
2022/04/05 15:46:38;;;;;;;2.53;2.23;;;12.20;83.90;;;12.58;54.31;98043.59;4904731;28;114188;-88
2022/04/05 15:50:02;;;;;;;3.10;2.30;;;12.20;83.80;;;12.55;54.29;98042.34;4916833;28;124151;-88
2022/04/05 15:52:31;;;;;;;2.50;2.20;;;12.20;83.90;;;12.54;54.25;98042.66;4923282;28;123273;-88
2022/04/05 15:58:41;;;;;;;2.00;1.80;;;12.10;83.90;;;12.50;54.13;98037.00;4920441;28;114036;-88
2022/04/05 16:01:07;;;;;;;2.20;1.83;;;12.20;84.00;;;12.52;54.66;98040.25;4900462;28;123520;-87
2022/04/05 16:07:54;;;;;;;2.10;1.90;;;12.10;84.10;;;12.50;54.75;98047.28;4917892;28;115199;-89
2022/04/05 16:11:19;;;;;;;3.00;1.70;;;12.10;84.10;;;12.51;54.73;98048.91;4896890;28;115914;-87
2022/04/05 16:13:46;;;;;;;1.80;1.60;;;12.10;84.20;;;12.53;54.59;98057.69;4923328;28;123419;-91
2022/04/05 16:16:12;;;;;;;2.40;1.97;;;12.10;84.30;;;12.55;54.75;98055.38;4899713;28;122808;-88
2022/04/05 16:18:59;;;;;;;3.13;1.60;;;12.10;84.40;;;12.58;54.89;98061.03;4904294;28;113218;-89
2022/04/05 16:21:28;;;;;;;1.97;1.60;;;12.20;84.60;;;12.59;54.99;98046.00;4914805;28;113029;-89
2022/04/05 16:24:32;;;;;;;2.00;1.80;;;12.20;84.60;;;12.63;54.85;98042.53;4912845;28;124468;-88
2022/04/05 16:27:37;;;;;;;1.67;1.57;;;12.20;84.80;;;12.64;54.92;98041.41;4907377;28;122769;-88
2022/04/05 16:30:40;;;;;;;2.50;1.73;;;12.20;84.80;;;12.59;54.98;98040.47;4917206;28;113408;-88
2022/04/05 16:33:08;;;;;;;1.90;1.70;;;12.10;84.90;;;12.56;54.91;98037.59;4903770;28;113153;-87
2022/04/05 16:35:36;;;;;;;2.60;1.90;;;12.10;85.00;;;12.56;55.38;98045.91;4887052;28;124048;-89
2022/04/05 16:41:49;;;;;;;2.50;2.00;;;12.10;85.10;;;12.52;55.57;98047.72;4894234;28;114196;-89
2022/04/05 16:44:37;;;;;;;2.83;2.20;;;12.10;85.10;;;12.50;55.50;98042.53;4889188;28;113535;-87
2022/04/05 16:47:06;;;;;;;2.37;1.87;;;12.10;85.30;;;12.50;55.47;98050.06;4894640;28;124002;-88
2022/04/05 16:49:32;;;;;;;1.77;1.67;;;12.10;85.30;;;12.50;55.44;98050.88;4905989;28;123754;-89
2022/04/05 16:52:19;;;;;;;2.10;1.87;;;12.10;85.30;;;12.50;55.27;98056.41;4889267;28;113710;-89
2022/04/05 16:54:47;;;;;;;2.30;2.10;;;12.10;85.40;;;12.52;55.57;98067.13;4886967;28;112991;-88
2022/04/05 16:57:52;;;;;;;3.00;2.40;;;12.10;85.50;;;12.48;55.63;98057.91;4901887;28;123868;-86
2022/04/05 17:04:02;;;;;;;2.47;2.07;;;12.10;85.50;;;12.39;55.48;98077.41;4896204;28;115576;-88
2022/04/05 17:06:50;;;;;;;3.37;2.20;;;12.00;85.40;;;12.37;55.36;98061.09;4860387;28;114069;-88
2022/04/05 17:09:38;;;;;;;3.43;2.63;;;12.00;85.50;;;12.34;55.56;98058.22;4897694;28;123892;-89
2022/04/05 17:12:43;;;;;;;3.30;2.67;;;12.00;85.40;;;12.33;55.74;98064.88;4902937;28;122641;-89
2022/04/05 17:15:49;;;;;;;2.80;2.30;;;11.90;85.40;;;12.30;55.62;98066.38;4902607;28;114196;-88
2022/04/05 17:18:34;;;;;;;2.93;2.53;;;11.90;85.50;;;12.29;55.79;98062.00;4879901;28;113472;-89
2022/04/05 17:21:02;;;;;;;2.97;2.57;;;11.90;85.60;;;12.29;55.77;98059.22;4907849;28;123139;-89
2022/04/05 17:23:49;;;;;;;2.70;2.50;;;11.90;85.50;;;12.31;55.45;98053.38;4912999;28;123440;-88
2022/04/05 17:26:36;;;;;;;2.40;2.20;;;11.90;85.50;;;12.32;55.37;98058.53;4906833;28;114316;-88
2022/04/05 17:29:04;;;;;;;2.60;2.40;;;11.90;85.40;;;12.34;55.65;98064.56;4912242;28;113369;-88
2022/04/05 17:31:31;;;;;;;2.63;2.43;;;12.00;85.60;;;12.36;55.23;98061.47;4919827;28;123868;-89
2022/04/05 17:34:36;;;;;;;3.77;2.47;;;11.90;85.40;;;12.35;55.31;98048.75;4932505;28;123476;-88
2022/04/05 17:37:05;;;;;;;2.93;2.20;;;11.90;85.30;;;12.34;55.62;98056.25;4915227;28;114196;-89
2022/04/05 17:39:32;;;;;;;2.87;2.50;;;11.90;85.30;;;12.36;55.26;98059.50;4901642;28;113505;-89
2022/04/05 17:42:57;;;;;;;2.60;2.40;;;11.90;85.20;;;12.37;55.13;98046.44;4930387;28;123767;-89
2022/04/05 17:52:47;;;;;;;3.67;2.73;;;12.00;85.20;;;12.33;54.96;98046.34;4921852;28;115146;-90
2022/04/05 17:55:52;;;;;;;4.23;2.63;;;11.90;85.20;;;12.35;55.35;98045.97;4898812;28;123778;-90
2022/04/05 17:58:40;;;;;;;3.10;2.80;;;11.90;85.00;;;12.37;55.13;98052.00;4894610;28;123015;-88
2022/04/05 18:01:07;;;;;;;2.97;2.27;;;11.90;85.10;;;12.35;55.32;98052.31;4922836;28;114828;-88
2022/04/05 18:03:54;;;;;;;4.37;2.60;;;11.90;85.10;;;12.35;55.26;98046.78;4908914;28;115022;-90
2022/04/05 18:06:22;;;;;;;2.70;2.50;;;12.00;85.10;;;12.36;55.30;98047.59;4908970;28;124619;-87
2022/04/05 18:08:50;;;;;;;4.33;2.80;;;11.90;85.00;;;12.35;55.33;98051.50;4916488;28;123247;-89
2022/04/05 18:14:58;;;;;;;4.43;2.80;;;11.90;85.00;;;12.31;55.32;98067.22;4928878;28;114453;-90
2022/04/05 18:18:21;;;;;;;3.83;2.20;;;11.90;85.20;;;12.28;55.43;98060.41;4937406;28;124886;-88
2022/04/05 18:20:49;;;;;;;3.20;2.40;;;11.90;85.20;;;12.25;55.49;98066.63;4929618;28;123694;-88
2022/04/05 18:23:37;;;;;;;2.30;2.10;;;11.90;85.30;;;12.25;55.71;98068.56;4930683;28;113751;-88
2022/04/05 18:26:09;;;;;;;2.73;2.33;;;11.90;85.30;;;12.24;55.56;98064.97;4936904;28;113749;-89
2022/04/05 18:32:38;;;;;;;3.37;3.00;;;11.80;85.50;;;12.20;55.72;98077.91;4951303;28;124782;-87
2022/04/05 18:35:26;;;;;;;3.13;2.30;;;11.80;85.60;;;12.18;55.91;98071.91;4933730;28;114018;-90